createdAt,value
2023-04-06T00:05:20.951Z,59.20
2023-04-06T00:15:19.842Z,59.50
2023-04-06T00:25:18.594Z,60.00
2023-04-06T00:35:17.689Z,60.50
2023-04-06T00:45:16.666Z,61.10
2023-04-06T00:55:16.916Z,61.60
2023-04-06T01:05:26.556Z,62.10
2023-04-06T01:15:25.997Z,62.60
2023-04-06T01:25:29.954Z,62.70
2023-04-06T01:35:30.608Z,63.00
2023-04-06T01:45:31.983Z,63.10
2023-04-06T01:55:32.762Z,63.00
2023-04-06T02:05:32.740Z,63.20
2023-04-06T02:15:32.749Z,63.10
2023-04-06T02:25:31.721Z,63.10
2023-04-06T02:35:31.716Z,63.20
2023-04-06T02:45:31.159Z,63.10
2023-04-06T02:55:31.098Z,63.30
2023-04-06T03:05:29.939Z,63.30
2023-04-06T03:15:30.760Z,63.40
2023-04-06T03:25:32.710Z,63.20
2023-04-06T03:35:31.925Z,63.40
2023-04-06T03:45:31.543Z,63.80
2023-04-06T03:55:30.999Z,63.90
2023-04-06T04:05:29.806Z,64.00
2023-04-06T04:15:28.930Z,64.10
2023-04-06T04:25:27.988Z,64.00
2023-04-06T04:35:26.936Z,64.00
2023-04-06T04:45:26.632Z,63.80
2023-04-06T04:55:31.639Z,63.70
2023-04-06T05:05:30.780Z,63.50
2023-04-06T05:15:31.811Z,63.40
2023-04-06T05:25:32.763Z,63.10
2023-04-06T05:35:33.643Z,62.90
2023-04-06T05:45:33.405Z,62.60
2023-04-06T05:55:46.648Z,62.40
2023-04-06T06:05:47.560Z,62.10
2023-04-06T06:15:47.750Z,61.60
2023-04-06T06:25:47.012Z,61.30
2023-04-06T06:35:45.827Z,61.00
2023-04-06T06:45:46.653Z,60.40
2023-04-06T06:55:46.199Z,59.80
2023-04-06T07:05:45.430Z,59.20
2023-04-06T07:15:46.635Z,58.80
2023-04-06T07:25:48.125Z,58.60
2023-04-06T07:35:46.961Z,57.80
2023-04-06T07:45:47.853Z,56.70
2023-04-06T07:55:47.033Z,56.30
2023-04-06T08:05:45.797Z,55.30
2023-04-06T08:15:44.711Z,54.50
2023-04-06T08:25:43.702Z,53.90
2023-04-06T08:35:42.815Z,53.40
2023-04-06T08:45:41.697Z,52.50
2023-04-06T08:55:41.122Z,51.30
2023-04-06T09:05:39.884Z,51.80
2023-04-06T09:15:38.814Z,49.50
2023-04-06T09:25:37.755Z,48.70
2023-04-06T09:35:36.894Z,48.70
2023-04-06T09:45:36.356Z,48.10
2023-04-06T09:55:35.978Z,48.20
2023-04-06T10:05:35.265Z,47.30
2023-04-06T10:15:33.810Z,47.60
2023-04-06T10:25:33.168Z,46.70
2023-04-06T10:35:31.831Z,46.40
2023-04-06T10:45:30.968Z,45.80
2023-04-06T10:55:29.800Z,44.90
2023-04-06T11:05:29.092Z,44.70
2023-04-06T11:15:27.885Z,42.50
2023-04-06T11:25:28.200Z,42.50
2023-04-06T11:35:26.815Z,42.10
2023-04-06T11:45:26.704Z,42.60
2023-04-06T11:55:26.222Z,42.80
2023-04-06T12:05:25.661Z,42.50
2023-04-06T12:15:24.923Z,43.70
2023-04-06T12:25:23.907Z,43.60
2023-04-06T12:35:22.925Z,44.10
2023-04-06T12:45:21.977Z,44.40
2023-04-06T12:55:22.093Z,45.10
2023-04-06T13:05:20.878Z,45.50
2023-04-06T13:15:20.263Z,45.30
2023-04-06T13:25:18.972Z,45.50
2023-04-06T13:35:18.523Z,46.10
2023-04-06T13:45:17.994Z,46.30
2023-04-06T13:55:16.937Z,47.00
2023-04-06T14:05:16.106Z,48.10
2023-04-06T14:15:16.121Z,49.90
2023-04-06T14:25:16.583Z,50.80
2023-04-06T14:35:15.993Z,51.40
2023-04-06T14:45:15.459Z,51.70
2023-04-06T14:55:14.589Z,53.30
2023-04-06T15:16:16.118Z,59.30
2023-04-06T15:26:15.064Z,62.60
2023-04-06T15:36:14.108Z,65.70
2023-04-06T15:46:13.041Z,67.80
2023-04-06T15:56:14.015Z,69.50
2023-04-06T16:06:13.048Z,71.20
2023-04-06T16:16:12.017Z,72.80
2023-04-06T16:26:11.237Z,75.10
2023-04-06T16:36:11.062Z,76.30
2023-04-06T16:46:11.217Z,78.10
2023-04-06T17:06:09.025Z,79.40
2023-04-06T17:16:08.098Z,81.00
2023-04-06T17:26:07.155Z,81.70
2023-04-06T17:36:07.332Z,83.70
2023-04-06T17:46:06.183Z,86.00
2023-04-06T17:56:05.315Z,87.80
2023-04-06T18:06:04.046Z,89.80
2023-04-06T18:16:03.209Z,91.00
2023-04-06T18:26:05.110Z,91.00
2023-04-06T18:36:04.170Z,92.00
2023-04-06T18:46:03.689Z,93.10
2023-04-06T18:56:03.629Z,94.10
2023-04-06T19:06:02.289Z,94.60
2023-04-06T19:16:01.226Z,95.60
2023-04-06T19:26:00.331Z,96.50
2023-04-06T19:35:59.361Z,97.20
2023-04-06T19:45:58.352Z,98.00
2023-04-06T19:55:57.228Z,98.50
2023-04-06T20:05:56.185Z,99.20
2023-04-06T20:15:55.223Z,99.50
2023-04-06T20:25:54.387Z,99.70
2023-04-06T20:35:53.313Z,99.90
2023-04-06T20:45:52.394Z,99.90
2023-04-06T20:55:51.424Z,99.90
2023-04-06T21:05:50.544Z,99.90
2023-04-06T21:15:51.049Z,99.90
2023-04-06T21:25:51.686Z,99.90
2023-04-06T21:35:53.543Z,99.90
2023-04-06T21:45:52.288Z,99.90
2023-04-06T21:55:51.436Z,99.90
2023-04-06T22:05:50.369Z,99.90
2023-04-06T22:15:49.295Z,99.90
2023-04-06T22:25:48.477Z,99.90
2023-04-06T22:35:47.416Z,99.90
2023-04-06T22:45:46.244Z,99.90
2023-04-06T22:55:45.961Z,99.90
2023-04-06T23:05:46.681Z,99.90
2023-04-06T23:15:45.894Z,99.90
2023-04-06T23:25:45.314Z,99.90
2023-04-06T23:35:44.463Z,99.90
2023-04-06T23:45:43.426Z,99.90
2023-04-06T23:55:42.445Z,99.90
